Laurence M. Gould — WCX7445 — position and weather

sailwx.info

Track history (hours):
 
Tides and Currents Weather Stations Pressure Air Temp Water Temp Dewpoint Dewpoint Depression Visibility Wind Speed Wind Dir Waves Ship Positions

Oceanographic research ship Laurence M. Gould (USA)

Detailed information on ship capabilities available from University of Delaware's Ocean Information Center.

Owner: Offshore Service Vessels LLC, GALLIANO, LA. More information available from US FCC via Universal Licensing System and Coast Guard Vessel Documentation Center.

Last reported at 2015-Feb-21 23:00 UTC. Time now 2015-Mar-02 14:56 UTC.
Position S 65°18' W 069°12'.
Warning: this ship's position is 8 days out of date.

Type: Other ship. MMSI: 368138000.

Wind from 290 at 6 knots

Barometer 989.9 mb
Air temperature 2.6 ° C
Water temperature 2.8 ° C

Date/timePositionNaut miles runAvg speedWind from/ knotsBaromVisibWave heightAir tempDewpointWater temp
2015-Feb-21 23:00S 65°18' W 069°12'17 8.7 290 / 6989.9 2.6 2.8
2015-Feb-21 21:00S 65°06' W 068°42'5511.0 290 / 6989.9 2.6 2.8
2015-Feb-21 16:00S 64°24' W 067°18'8 7.9 290 / 6989.9 2.6 2.8
2015-Feb-21 15:00S 64°18' W 067°06'10 9.9 290 / 6989.9 2.6 2.8
2015-Feb-21 14:00S 64°12' W 066°48'8 8.0 290 / 6989.9 2.6 2.8
2015-Feb-21 13:00S 64°06' W 066°36'3 1.3 290 / 6989.9 2.6 2.8
2015-Feb-21 11:00S 64°06' W 066°42'0 0.0 290 / 6989.9 2.6 2.8
2015-Feb-21 10:00S 64°06' W 066°42'7 6.5 290 / 6989.9 2.6 2.8
2015-Feb-21 09:00S 64°12' W 066°48'10 1.4 290 / 6989.9 2.6 2.8
2015-Feb-21 02:00S 64°18' W 067°06'8 7.9 290 / 6989.9 2.6 2.8
2015-Feb-21 01:00S 64°12' W 066°54'7 6.5 290 / 6989.9 2.6 2.8
2015-Feb-21 00:00S 64°06' W 066°48'0 0.0 290 / 6989.9 2.6 2.8
2015-Feb-20 23:00S 64°06' W 066°48'0 0.0 290 / 6989.9 2.6 2.8
2015-Feb-20 22:00S 64°06' W 066°48'8 2.6 290 / 6989.9 2.6 2.8
2015-Feb-20 19:00S 64°06' W 066°30'7 3.3 290 / 6989.9 2.6 2.8
2015-Feb-20 17:00S 64°00' W 066°24'0 0.0 290 / 6989.9 2.6 2.8
2015-Feb-20 16:00S 64°00' W 066°24'0 0.0 290 / 6989.9 2.6 2.8
2015-Feb-20 15:00S 64°00' W 066°24'7 6.6 290 / 6989.9 2.6 2.8
2015-Feb-20 14:00S 63°54' W 066°30'7 6.6 290 / 6989.9 2.6 2.8
2015-Feb-20 13:00S 64°00' W 066°24'0 0.0 290 / 6989.9 2.6 2.8
2015-Feb-20 12:00S 64°00' W 066°24'3 2.6 290 / 6989.9 2.6 2.8
2015-Feb-20 11:00S 64°00' W 066°30'8 1.6 290 / 6989.9 2.6 2.8
2015-Feb-20 06:00S 64°06' W 066°42'10 9.9 290 / 6989.9 2.6 2.8
2015-Feb-20 05:00S 64°00' W 066°24'8 8.0 290 / 6989.9 2.6 2.8
2015-Feb-20 04:00S 63°54' W 066°12'8 8.0 290 / 6989.9 2.6 2.8
2015-Feb-20 03:00S 63°48' W 066°00'10 5.0 290 / 6989.9 2.6 2.8
2015-Feb-20 01:00S 63°54' W 065°42'8 8.0 290 / 6989.9 2.6 2.8
2015-Feb-20 00:00S 64°00' W 065°30'1313.1 290 / 6989.9 2.6 2.8
2015-Feb-19 23:00S 64°12' W 065°18'8 7.9 290 / 6989.9 2.6 2.8
2015-Feb-19 22:00S 64°18' W 065°06'7 6.5 290 / 6989.9 2.6 2.8
2015-Feb-19 21:00S 64°24' W 065°00'1313.1 290 / 6989.9 2.6 2.8
2015-Feb-19 20:00S 64°36' W 064°48'8 7.9 290 / 6989.9 2.6 2.8
2015-Feb-19 19:00S 64°42' W 064°36'8 7.7 290 / 6989.9 2.6 2.8
2015-Feb-19 18:00S 64°42' W 064°18'10 5.1 290 / 6989.9 2.6 2.8
2015-Feb-19 16:00S 64°42' W 063°54'0 0.0 290 / 6989.9 2.6 2.8
2015-Feb-19 15:00S 64°42' W 063°54'0 0.0 290 / 6989.9 2.6 2.8
2015-Feb-19 14:00S 64°42' W 063°54'0 0.0 290 / 6989.9 2.6 2.8
2015-Feb-19 12:00S 64°42' W 063°54'6 3.0 290 / 6989.9 2.6 2.8
2015-Feb-19 10:00S 64°36' W 063°54'0 0.0 290 / 6989.9 2.6 2.8
2015-Feb-19 09:00S 64°36' W 063°54'0 0.0 290 / 6989.9 2.6 2.8
2015-Feb-19 08:00S 64°36' W 063°54'0 0.0 290 / 6989.9 2.6 2.8
2015-Feb-19 07:00S 64°36' W 063°54'0 0.0 290 / 6989.9 2.6 2.8
2015-Feb-19 06:00S 64°36' W 063°54'0 0.0 290 / 6989.9 2.6 2.8
2015-Feb-19 05:00S 64°36' W 063°54'0 0.0 290 / 6989.9 2.6 2.8
2015-Feb-19 04:00S 64°36' W 063°54'0 0.0 290 / 6989.9 2.6 2.8
2015-Feb-19 03:00S 64°36' W 063°54'0 0.0 290 / 6989.9 2.6 2.8
2015-Feb-19 02:00S 64°36' W 063°54'0 0.0 290 / 6989.9 2.6 2.8
2015-Feb-19 01:00S 64°36' W 063°54'0 0.0 290 / 6989.9 2.6 2.8
2015-Feb-19 00:00S 64°36' W 063°54'0 0.0 290 / 6989.9 2.6 2.8
2015-Feb-18 23:00S 64°36' W 063°54'0 0.0 290 / 6989.9 2.6 2.8
2015-Feb-18 22:00S 64°36' W 063°54'0 0.0 290 / 6989.9 2.6 2.8
2015-Feb-18 20:00S 64°36' W 063°54'0 0.0 290 / 6989.9 2.6 2.8
2015-Feb-18 19:00S 64°36' W 063°54'0 0.0 290 / 6989.9 2.6 2.8
2015-Feb-18 18:00S 64°36' W 063°54'0 0.0 290 / 6989.9 2.6 2.8
2015-Feb-18 17:00S 64°36' W 063°54'0 0.0 290 / 6989.9 2.6 2.8
2015-Feb-18 16:00S 64°36' W 063°54'0 0.0 290 / 6989.9 2.6 2.8
2015-Feb-18 15:00S 64°36' W 063°54'0 0.0 290 / 6989.9 2.6 2.8
2015-Feb-18 13:00S 64°36' W 063°54'0 0.0 290 / 6989.9 2.6 2.8
2015-Feb-18 11:00S 64°36' W 063°54'8 7.9 290 / 6989.9 2.6 2.8
2015-Feb-18 10:00S 64°42' W 063°42'8 7.7 290 / 6989.9 2.6 2.8
2015-Feb-18 09:00S 64°42' W 063°24'8 7.9 290 / 6989.9 2.6 2.8
2015-Feb-18 08:00S 64°36' W 063°12'10 9.8 290 / 6989.9 2.6 2.8
2015-Feb-18 07:00S 64°30' W 062°54'8 7.7 290 / 6989.9 2.6 2.8
2015-Feb-18 06:00S 64°30' W 062°36'10 9.8 290 / 6989.9 2.6 2.8
2015-Feb-18 05:00S 64°24' W 062°18'18 8.8 290 / 6989.9 2.6 2.8
2015-Feb-18 03:00S 64°12' W 061°48'2512.3 290 / 6989.9 2.6 2.8
2015-Feb-18 01:00S 63°48' W 061°36'8 8.0 290 / 6989.9 2.6 2.8
2015-Feb-18 00:00S 63°42' W 061°24'7 6.6 290 / 6989.9 2.6 2.8
2015-Feb-17 23:00S 63°36' W 061°18'1212.0 290 / 6989.9 2.6 2.8
2015-Feb-17 22:00S 63°24' W 061°18'1212.3 290 / 6989.9 2.6 2.8
2015-Feb-17 21:00S 63°12' W 061°24'7 6.6 290 / 6989.9 2.6 2.8
2015-Feb-17 20:00S 63°06' W 061°30'1212.3 290 / 6989.9 2.6 2.8
2015-Feb-17 19:00S 62°54' W 061°36'24 8.1 290 / 6989.9 2.6 2.8
2015-Feb-17 16:00S 62°30' W 061°30'2311.4 290 / 6989.9 2.6 2.8
2015-Feb-17 14:00S 62°18' W 060°48'6 2.8 290 / 6989.9 2.6 2.8
2015-Feb-17 12:00S 62°18' W 060°36'0 0.0 290 / 6989.9 2.6 2.8
2015-Feb-17 10:00S 62°18' W 060°36'0 0.0 290 / 6989.9 2.6 2.8
2015-Feb-17 09:00S 62°18' W 060°36'3 2.8 290 / 6989.9 2.6 2.8
2015-Feb-17 08:00S 62°18' W 060°42'7 3.3 290 / 6989.9 2.6 2.8
2015-Feb-17 06:00S 62°12' W 060°48'0 0.0 290 / 6989.9 2.6 2.8
2015-Feb-17 05:00S 62°12' W 060°48'3 2.8 290 / 6989.9 2.6 2.8
2015-Feb-17 04:00S 62°12' W 060°54'6 6.0 290 / 6989.9 2.6 2.8
2015-Feb-17 03:00S 62°06' W 060°54'6 6.0 290 / 6989.9 2.6 2.8
2015-Feb-17 02:00S 62°12' W 060°54'3 2.8 290 / 6989.9 2.6 2.8
2015-Feb-17 01:00S 62°12' W 060°48'6 6.0 290 / 6989.9 2.6 2.8
2015-Feb-17 00:00S 62°06' W 060°48'1212.0 280 / 10990.1 2.2 2.6
2015-Feb-16 23:00S 61°54' W 060°48'6 6.0 280 / 12990.4 2.4 3.0
2015-Feb-16 22:00S 61°48' W 060°48'1212.0 270 / 13990.5 2.8 3.0
2015-Feb-16 21:00S 61°36' W 060°48'5410.8 270 / 13990.8 3.0 3.3
2015-Feb-16 16:00S 60°42' W 060°48'3010.0 290 / 13993.0 3.8 3.3
2015-Feb-16 13:00S 60°12' W 060°54'1212.0 280 / 12993.3 3.5 3.4
2015-Feb-16 12:00S 60°00' W 060°54'1212.4 280 / 13993.3 3.6 3.5
2015-Feb-16 11:00S 59°48' W 061°00'9 8.5 270 / 13993.4 3.4 3.4
2015-Feb-16 10:00S 59°42' W 061°12'1212.4 280 / 14993.5 3.5 3.4
2015-Feb-16 09:00S 59°30' W 061°18'2210.9 290 / 15993.5 3.5 3.4
2015-Feb-16 07:00S 59°12' W 061°42'1212.4 310 / 18992.9 3.9 3.5
2015-Feb-16 06:00S 59°00' W 061°48'9 8.6 310 / 19993.1 3.9 3.4
2015-Feb-16 05:00S 58°54' W 062°00'19 9.5 310 / 19993.0 4.2 3.3
2015-Feb-16 03:00S 58°36' W 062°12'9 8.7 300 / 17992.5 4.7 3.8
2015-Feb-16 02:00S 58°30' W 062°24'1413.5 300 / 21992.6 5.2 4.2
2015-Feb-16 01:00S 58°18' W 062°36'7 6.8 290 / 23992.3 5.9 6.2
2015-Feb-16 00:00S 58°12' W 062°42'2211.0 290 / 22992.3 6.5 10.2
2015-Feb-15 22:00S 57°54' W 063°06'1413.6 300 / 27993.0 7.2 8.8
2015-Feb-15 21:00S 57°42' W 063°18'7 6.8 300 / 30993.2 7.9 8.6
2015-Feb-15 20:00S 57°36' W 063°24'1212.4 320 / 23993.3 7.6 8.8
2015-Feb-15 19:00S 57°24' W 063°30'1212.4 330 / 20994.0 7.1 8.8
2015-Feb-15 18:00S 57°12' W 063°36'19 9.6 310 / 18994.7 7.5 8.6
2015-Feb-15 16:00S 56°54' W 063°48'1212.4 340 / 21994.7 7.8 8.0
2015-Feb-15 15:00S 56°42' W 063°54'6 6.0 320 / 23995.3 8.2 7.8
2015-Feb-15 14:00S 56°36' W 063°54'1212.4 340 / 21995.9 8.0 8.2
2015-Feb-15 13:00S 56°24' W 064°00'19 9.6 340 / 22996.6 8.0 12.1
2015-Feb-15 11:00S 56°06' W 064°12'1212.5 340 / 21998.0 7.7 20.7
2015-Feb-15 10:00S 55°54' W 064°18'1212.5 350 / 25998.4 7.7 19.8
2015-Feb-15 09:00S 55°42' W 064°24'1212.5 360 / 20999.2 7.8 18.8
2015-Feb-15 08:00S 55°30' W 064°30'19 9.6 360 / 21999.4 8.0 17.1
2015-Feb-15 06:00S 55°12' W 064°42'1212.0 360 / 131000.7 8.0 14.1
2015-Feb-15 05:00S 55°00' W 064°42'7 6.9 010 / 101000.9 8.3 11.4
2015-Feb-15 04:00S 54°54' W 064°48'1212.0 030 / 81001.1 8.8 9.7
2015-Feb-15 03:00S 54°42' W 064°48'6 6.0 100 / 71001.0 8.7 10.1
2015-Feb-15 02:00S 54°36' W 064°48'1212.0 140 / 141000.8 8.9 17.1
2015-Feb-15 01:00S 54°24' W 064°48'1212.1 150 / 181000.6 11.0 14.1
2015-Feb-15 00:00S 54°18' W 065°06'1413.9 260 / 12999.9 10.0 13.5
2015-Feb-14 23:00S 54°06' W 065°18'9 9.3 310 / 21999.0 10.1 11.9
2015-Feb-14 22:00S 54°00' W 065°30'1212.2 320 / 24999.1 10.1 10.6
2015-Feb-14 21:00S 53°54' W 065°48'1413.9 330 / 22999.5 9.7 10.3
2015-Feb-14 20:00S 53°42' W 066°00'9 9.3 330 / 25999.6 9.6 10.1
2015-Feb-14 19:00S 53°36' W 066°12'9 9.3 340 / 19999.5 9.6 10.1
2015-Feb-14 18:00S 53°30' W 066°24'9 9.3 360 / 14999.3 10.5 10.2
2015-Feb-14 17:00S 53°24' W 066°36'1414.0 350 / 11999.7 10.8 10.2
2015-Feb-14 16:00S 53°12' W 066°48'9 9.4 010 / 121000.4 10.6 10.9
2015-Feb-14 15:00S 53°06' W 067°00'   360 / 141001.4 10.3 10.8
Track history (hours):
 
Tides and Currents Weather Stations Pressure Air Temp Water Temp Dewpoint Dewpoint Depression Visibility Wind Speed Wind Dir Waves Ship Positions

Oceanographic research ship Laurence M. Gould (USA)

Detailed information on ship capabilities available from University of Delaware's Ocean Information Center.

Owner: Offshore Service Vessels LLC, GALLIANO, LA. More information available from US FCC via Universal Licensing System and Coast Guard Vessel Documentation Center.

Last reported at 2015-Feb-21 23:00 UTC. Time now 2015-Mar-02 14:56 UTC.
Position S 65°18' W 069°12'.
Warning: this ship's position is 8 days out of date.

Type: Other ship. MMSI: 368138000.

Wind from 290 at 6 knots

Barometer 989.9 mb
Air temperature 2.6 ° C
Water temperature 2.8 ° C

Date/timePositionNaut miles runAvg speedWind from/ knotsBaromVisibWave heightAir tempDewpointWater temp
2015-Feb-21 23:00S 65°18' W 069°12'17 8.7 290 / 6989.9 2.6 2.8
2015-Feb-21 21:00S 65°06' W 068°42'5511.0 290 / 6989.9 2.6 2.8
2015-Feb-21 16:00S 64°24' W 067°18'8 7.9 290 / 6989.9 2.6 2.8
2015-Feb-21 15:00S 64°18' W 067°06'10 9.9 290 / 6989.9 2.6 2.8
2015-Feb-21 14:00S 64°12' W 066°48'8 8.0 290 / 6989.9 2.6 2.8
2015-Feb-21 13:00S 64°06' W 066°36'3 1.3 290 / 6989.9 2.6 2.8
2015-Feb-21 11:00S 64°06' W 066°42'0 0.0 290 / 6989.9 2.6 2.8
2015-Feb-21 10:00S 64°06' W 066°42'7 6.5 290 / 6989.9 2.6 2.8
2015-Feb-21 09:00S 64°12' W 066°48'10 1.4 290 / 6989.9 2.6 2.8
2015-Feb-21 02:00S 64°18' W 067°06'8 7.9 290 / 6989.9 2.6 2.8
2015-Feb-21 01:00S 64°12' W 066°54'7 6.5 290 / 6989.9 2.6 2.8
2015-Feb-21 00:00S 64°06' W 066°48'0 0.0 290 / 6989.9 2.6 2.8
2015-Feb-20 23:00S 64°06' W 066°48'0 0.0 290 / 6989.9 2.6 2.8
2015-Feb-20 22:00S 64°06' W 066°48'8 2.6 290 / 6989.9 2.6 2.8
2015-Feb-20 19:00S 64°06' W 066°30'7 3.3 290 / 6989.9 2.6 2.8
2015-Feb-20 17:00S 64°00' W 066°24'0 0.0 290 / 6989.9 2.6 2.8
2015-Feb-20 16:00S 64°00' W 066°24'0 0.0 290 / 6989.9 2.6 2.8
2015-Feb-20 15:00S 64°00' W 066°24'7 6.6 290 / 6989.9 2.6 2.8
2015-Feb-20 14:00S 63°54' W 066°30'7 6.6 290 / 6989.9 2.6 2.8
2015-Feb-20 13:00S 64°00' W 066°24'0 0.0 290 / 6989.9 2.6 2.8
2015-Feb-20 12:00S 64°00' W 066°24'3 2.6 290 / 6989.9 2.6 2.8
2015-Feb-20 11:00S 64°00' W 066°30'8 1.6 290 / 6989.9 2.6 2.8
2015-Feb-20 06:00S 64°06' W 066°42'10 9.9 290 / 6989.9 2.6 2.8
2015-Feb-20 05:00S 64°00' W 066°24'8 8.0 290 / 6989.9 2.6 2.8
2015-Feb-20 04:00S 63°54' W 066°12'8 8.0 290 / 6989.9 2.6 2.8
2015-Feb-20 03:00S 63°48' W 066°00'10 5.0 290 / 6989.9 2.6 2.8
2015-Feb-20 01:00S 63°54' W 065°42'8 8.0 290 / 6989.9 2.6 2.8
2015-Feb-20 00:00S 64°00' W 065°30'1313.1 290 / 6989.9 2.6 2.8
2015-Feb-19 23:00S 64°12' W 065°18'8 7.9 290 / 6989.9 2.6 2.8
2015-Feb-19 22:00S 64°18' W 065°06'7 6.5 290 / 6989.9 2.6 2.8
2015-Feb-19 21:00S 64°24' W 065°00'1313.1 290 / 6989.9 2.6 2.8
2015-Feb-19 20:00S 64°36' W 064°48'8 7.9 290 / 6989.9 2.6 2.8
2015-Feb-19 19:00S 64°42' W 064°36'8 7.7 290 / 6989.9 2.6 2.8
2015-Feb-19 18:00S 64°42' W 064°18'10 5.1 290 / 6989.9 2.6 2.8
2015-Feb-19 16:00S 64°42' W 063°54'0 0.0 290 / 6989.9 2.6 2.8
2015-Feb-19 15:00S 64°42' W 063°54'0 0.0 290 / 6989.9 2.6 2.8
2015-Feb-19 14:00S 64°42' W 063°54'0 0.0 290 / 6989.9 2.6 2.8
2015-Feb-19 12:00S 64°42' W 063°54'6 3.0 290 / 6989.9 2.6 2.8
2015-Feb-19 10:00S 64°36' W 063°54'0 0.0 290 / 6989.9 2.6 2.8
2015-Feb-19 09:00S 64°36' W 063°54'0 0.0 290 / 6989.9 2.6 2.8
2015-Feb-19 08:00S 64°36' W 063°54'0 0.0 290 / 6989.9 2.6 2.8
2015-Feb-19 07:00S 64°36' W 063°54'0 0.0 290 / 6989.9 2.6 2.8
2015-Feb-19 06:00S 64°36' W 063°54'0 0.0 290 / 6989.9 2.6 2.8
2015-Feb-19 05:00S 64°36' W 063°54'0 0.0 290 / 6989.9 2.6 2.8
2015-Feb-19 04:00S 64°36' W 063°54'0 0.0 290 / 6989.9 2.6 2.8
2015-Feb-19 03:00S 64°36' W 063°54'0 0.0 290 / 6989.9 2.6 2.8
2015-Feb-19 02:00S 64°36' W 063°54'0 0.0 290 / 6989.9 2.6 2.8
2015-Feb-19 01:00S 64°36' W 063°54'0 0.0 290 / 6989.9 2.6 2.8
2015-Feb-19 00:00S 64°36' W 063°54'0 0.0 290 / 6989.9 2.6 2.8
2015-Feb-18 23:00S 64°36' W 063°54'0 0.0 290 / 6989.9 2.6 2.8
2015-Feb-18 22:00S 64°36' W 063°54'0 0.0 290 / 6989.9 2.6 2.8
2015-Feb-18 20:00S 64°36' W 063°54'0 0.0 290 / 6989.9 2.6 2.8
2015-Feb-18 19:00S 64°36' W 063°54'0 0.0 290 / 6989.9 2.6 2.8
2015-Feb-18 18:00S 64°36' W 063°54'0 0.0 290 / 6989.9 2.6 2.8
2015-Feb-18 17:00S 64°36' W 063°54'0 0.0 290 / 6989.9 2.6 2.8
2015-Feb-18 16:00S 64°36' W 063°54'0 0.0 290 / 6989.9 2.6 2.8
2015-Feb-18 15:00S 64°36' W 063°54'0 0.0 290 / 6989.9 2.6 2.8
2015-Feb-18 13:00S 64°36' W 063°54'0 0.0 290 / 6989.9 2.6 2.8
2015-Feb-18 11:00S 64°36' W 063°54'8 7.9 290 / 6989.9 2.6 2.8
2015-Feb-18 10:00S 64°42' W 063°42'8 7.7 290 / 6989.9 2.6 2.8
2015-Feb-18 09:00S 64°42' W 063°24'8 7.9 290 / 6989.9 2.6 2.8
2015-Feb-18 08:00S 64°36' W 063°12'10 9.8 290 / 6989.9 2.6 2.8
2015-Feb-18 07:00S 64°30' W 062°54'8 7.7 290 / 6989.9 2.6 2.8
2015-Feb-18 06:00S 64°30' W 062°36'10 9.8 290 / 6989.9 2.6 2.8
2015-Feb-18 05:00S 64°24' W 062°18'18 8.8 290 / 6989.9 2.6 2.8
2015-Feb-18 03:00S 64°12' W 061°48'2512.3 290 / 6989.9 2.6 2.8
2015-Feb-18 01:00S 63°48' W 061°36'8 8.0 290 / 6989.9 2.6 2.8
2015-Feb-18 00:00S 63°42' W 061°24'7 6.6 290 / 6989.9 2.6 2.8
2015-Feb-17 23:00S 63°36' W 061°18'1212.0 290 / 6989.9 2.6 2.8
2015-Feb-17 22:00S 63°24' W 061°18'1212.3 290 / 6989.9 2.6 2.8
2015-Feb-17 21:00S 63°12' W 061°24'7 6.6 290 / 6989.9 2.6 2.8
2015-Feb-17 20:00S 63°06' W 061°30'1212.3 290 / 6989.9 2.6 2.8
2015-Feb-17 19:00S 62°54' W 061°36'24 8.1 290 / 6989.9 2.6 2.8
2015-Feb-17 16:00S 62°30' W 061°30'2311.4 290 / 6989.9 2.6 2.8
2015-Feb-17 14:00S 62°18' W 060°48'6 2.8 290 / 6989.9 2.6 2.8
2015-Feb-17 12:00S 62°18' W 060°36'0 0.0 290 / 6989.9 2.6 2.8
2015-Feb-17 10:00S 62°18' W 060°36'0 0.0 290 / 6989.9 2.6 2.8
2015-Feb-17 09:00S 62°18' W 060°36'3 2.8 290 / 6989.9 2.6 2.8
2015-Feb-17 08:00S 62°18' W 060°42'7 3.3 290 / 6989.9 2.6 2.8
2015-Feb-17 06:00S 62°12' W 060°48'0 0.0 290 / 6989.9 2.6 2.8
2015-Feb-17 05:00S 62°12' W 060°48'3 2.8 290 / 6989.9 2.6 2.8
2015-Feb-17 04:00S 62°12' W 060°54'6 6.0 290 / 6989.9 2.6 2.8
2015-Feb-17 03:00S 62°06' W 060°54'6 6.0 290 / 6989.9 2.6 2.8
2015-Feb-17 02:00S 62°12' W 060°54'3 2.8 290 / 6989.9 2.6 2.8
2015-Feb-17 01:00S 62°12' W 060°48'6 6.0 290 / 6989.9 2.6 2.8
2015-Feb-17 00:00S 62°06' W 060°48'1212.0 280 / 10990.1 2.2 2.6
2015-Feb-16 23:00S 61°54' W 060°48'6 6.0 280 / 12990.4 2.4 3.0
2015-Feb-16 22:00S 61°48' W 060°48'1212.0 270 / 13990.5 2.8 3.0
2015-Feb-16 21:00S 61°36' W 060°48'5410.8 270 / 13990.8 3.0 3.3
2015-Feb-16 16:00S 60°42' W 060°48'3010.0 290 / 13993.0 3.8 3.3
2015-Feb-16 13:00S 60°12' W 060°54'1212.0 280 / 12993.3 3.5 3.4
2015-Feb-16 12:00S 60°00' W 060°54'1212.4 280 / 13993.3 3.6 3.5
2015-Feb-16 11:00S 59°48' W 061°00'9 8.5 270 / 13993.4 3.4 3.4
2015-Feb-16 10:00S 59°42' W 061°12'1212.4 280 / 14993.5 3.5 3.4
2015-Feb-16 09:00S 59°30' W 061°18'2210.9 290 / 15993.5 3.5 3.4
2015-Feb-16 07:00S 59°12' W 061°42'1212.4 310 / 18992.9 3.9 3.5
2015-Feb-16 06:00S 59°00' W 061°48'9 8.6 310 / 19993.1 3.9 3.4
2015-Feb-16 05:00S 58°54' W 062°00'19 9.5 310 / 19993.0 4.2 3.3
2015-Feb-16 03:00S 58°36' W 062°12'9 8.7 300 / 17992.5 4.7 3.8
2015-Feb-16 02:00S 58°30' W 062°24'1413.5 300 / 21992.6 5.2 4.2
2015-Feb-16 01:00S 58°18' W 062°36'7 6.8 290 / 23992.3 5.9 6.2
2015-Feb-16 00:00S 58°12' W 062°42'2211.0 290 / 22992.3 6.5 10.2
2015-Feb-15 22:00S 57°54' W 063°06'1413.6 300 / 27993.0 7.2 8.8
2015-Feb-15 21:00S 57°42' W 063°18'7 6.8 300 / 30993.2 7.9 8.6
2015-Feb-15 20:00S 57°36' W 063°24'1212.4 320 / 23993.3 7.6 8.8
2015-Feb-15 19:00S 57°24' W 063°30'1212.4 330 / 20994.0 7.1 8.8
2015-Feb-15 18:00S 57°12' W 063°36'19 9.6 310 / 18994.7 7.5 8.6
2015-Feb-15 16:00S 56°54' W 063°48'1212.4 340 / 21994.7 7.8 8.0
2015-Feb-15 15:00S 56°42' W 063°54'6 6.0 320 / 23995.3 8.2 7.8
2015-Feb-15 14:00S 56°36' W 063°54'1212.4 340 / 21995.9 8.0 8.2
2015-Feb-15 13:00S 56°24' W 064°00'19 9.6 340 / 22996.6 8.0 12.1
2015-Feb-15 11:00S 56°06' W 064°12'1212.5 340 / 21998.0 7.7 20.7
2015-Feb-15 10:00S 55°54' W 064°18'1212.5 350 / 25998.4 7.7 19.8
2015-Feb-15 09:00S 55°42' W 064°24'1212.5 360 / 20999.2 7.8 18.8
2015-Feb-15 08:00S 55°30' W 064°30'19 9.6 360 / 21999.4 8.0 17.1
2015-Feb-15 06:00S 55°12' W 064°42'1212.0 360 / 131000.7 8.0 14.1
2015-Feb-15 05:00S 55°00' W 064°42'7 6.9 010 / 101000.9 8.3 11.4
2015-Feb-15 04:00S 54°54' W 064°48'1212.0 030 / 81001.1 8.8 9.7
2015-Feb-15 03:00S 54°42' W 064°48'6 6.0 100 / 71001.0 8.7 10.1
2015-Feb-15 02:00S 54°36' W 064°48'1212.0 140 / 141000.8 8.9 17.1
2015-Feb-15 01:00S 54°24' W 064°48'1212.1 150 / 181000.6 11.0 14.1
2015-Feb-15 00:00S 54°18' W 065°06'1413.9 260 / 12999.9 10.0 13.5
2015-Feb-14 23:00S 54°06' W 065°18'9 9.3 310 / 21999.0 10.1 11.9
2015-Feb-14 22:00S 54°00' W 065°30'1212.2 320 / 24999.1 10.1 10.6
2015-Feb-14 21:00S 53°54' W 065°48'1413.9 330 / 22999.5 9.7 10.3
2015-Feb-14 20:00S 53°42' W 066°00'9 9.3 330 / 25999.6 9.6 10.1
2015-Feb-14 19:00S 53°36' W 066°12'9 9.3 340 / 19999.5 9.6 10.1
2015-Feb-14 18:00S 53°30' W 066°24'9 9.3 360 / 14999.3 10.5 10.2
2015-Feb-14 17:00S 53°24' W 066°36'1414.0 350 / 11999.7 10.8 10.2
2015-Feb-14 16:00S 53°12' W 066°48'9 9.4 010 / 121000.4 10.6 10.9
2015-Feb-14 15:00S 53°06' W 067°00'   360 / 141001.4 10.3 10.8

Dump ship's entire track history